Time;durP1;ratioP1;P1;durP2;ratioP2;P2;SDS_P1;SDS_P2;PMS_P1;PMS_P2;Temp;Humidity;BMP_temperature;BMP_pressure;BME280_temperature;BME280_humidity;BME280_pressure;Samples;Min_cycle;Max_cycle;Signal;HPM_P1;HPM_P2
2021/12/11 00:02:24;;;;;;;11.10;6.53;;;-1.60;99.90;;;;;;5075029;28;20024;-77
2021/12/11 00:04:55;;;;;;;7.72;5.05;;;-1.60;99.90;;;;;;5090034;28;20016;-77
2021/12/11 00:07:22;;;;;;;9.63;5.57;;;-1.60;99.90;;;;;;5065014;28;20025;-77
2021/12/11 00:10:17;;;;;;;9.32;6.22;;;-1.60;99.90;;;;;;5088410;28;20070;-77
2021/12/11 00:12:50;;;;;;;11.60;6.97;;;-1.60;99.90;;;;;;5061062;28;20036;-76
2021/12/11 00:15:24;;;;;;;12.68;6.95;;;-1.60;99.90;;;;;;5078624;28;20103;-76
2021/12/11 00:18:04;;;;;;;10.13;6.45;;;-1.60;99.90;;;;;;5087056;28;20024;-77
2021/12/11 00:20:32;;;;;;;10.35;6.78;;;-1.70;99.90;;;;;;5088537;28;20028;-77
2021/12/11 00:22:59;;;;;;;11.63;6.70;;;-1.70;99.90;;;;;;5067136;28;20543;-77
2021/12/11 00:25:25;;;;;;;11.43;6.47;;;-1.70;99.90;;;;;;5071501;28;20028;-77
2021/12/11 00:27:59;;;;;;;13.68;8.15;;;-1.80;99.90;;;;;;5073362;28;20021;-77
2021/12/11 00:30:28;;;;;;;20.25;8.35;;;-1.80;99.90;;;;;;5072196;28;20056;-77
2021/12/11 00:33:06;;;;;;;15.05;8.25;;;-1.80;99.90;;;;;;5069985;28;20027;-77
2021/12/11 00:35:32;;;;;;;19.92;7.82;;;-1.80;99.90;;;;;;5071083;28;20034;-77
2021/12/11 00:38:10;;;;;;;15.90;7.90;;;-1.80;99.90;;;;;;5068418;28;20028;-77
2021/12/11 00:40:37;;;;;;;11.98;7.78;;;-1.80;99.90;;;;;;5069580;28;20040;-77
2021/12/11 00:43:07;;;;;;;14.30;7.82;;;-1.90;99.90;;;;;;5070665;28;20411;-76
2021/12/11 00:45:36;;;;;;;12.98;7.57;;;-1.80;99.90;;;;;;5071411;28;20024;-77
2021/12/11 00:48:08;;;;;;;13.02;6.97;;;-1.80;99.90;;;;;;5069369;28;20024;-77
2021/12/11 00:50:40;;;;;;;16.85;7.05;;;-1.80;99.90;;;;;;5085913;28;20078;-77
2021/12/11 00:53:11;;;;;;;12.95;7.82;;;-1.80;99.90;;;;;;5074680;28;20050;-77
2021/12/11 00:55:40;;;;;;;10.90;7.47;;;-1.70;99.90;;;;;;5081537;28;20036;-77
2021/12/11 00:58:13;;;;;;;12.88;7.20;;;-1.80;99.90;;;;;;5061606;28;20025;-76
2021/12/11 01:00:57;;;;;;;13.65;7.40;;;-1.70;99.90;;;;;;5064234;28;20024;-76
2021/12/11 01:03:32;;;;;;;12.70;6.43;;;-1.80;99.90;;;;;;5072903;28;20043;-77
2021/12/11 01:06:06;;;;;;;8.77;5.72;;;-1.80;99.90;;;;;;5075630;28;20021;-77
2021/12/11 01:08:39;;;;;;;17.73;9.30;;;-1.80;99.90;;;;;;5071617;28;20024;-77
2021/12/11 01:11:21;;;;;;;12.50;7.00;;;-1.80;99.90;;;;;;5061338;28;20085;-76
2021/12/11 01:14:26;;;;;;;10.20;6.35;;;-1.70;99.90;;;;;;5073914;28;20464;-76
2021/12/11 01:17:18;;;;;;;12.02;6.82;;;-1.70;99.90;;;;;;5075441;28;20112;-77
2021/12/11 01:19:45;;;;;;;13.57;7.18;;;-1.70;99.90;;;;;;5074553;28;20032;-76
2021/12/11 01:22:31;;;;;;;12.52;6.53;;;-1.70;99.90;;;;;;5074971;28;20021;-76
2021/12/11 01:24:57;;;;;;;14.35;7.03;;;-1.70;99.90;;;;;;5062883;28;20029;-76
2021/12/11 01:27:25;;;;;;;12.35;6.93;;;-1.80;99.90;;;;;;5071587;28;20472;-77
2021/12/11 01:29:56;;;;;;;18.98;6.90;;;-1.90;99.90;;;;;;5069305;28;20040;-77
2021/12/11 01:32:25;;;;;;;13.45;7.30;;;-1.90;99.90;;;;;;5069974;28;20032;-77
2021/12/11 01:34:52;;;;;;;13.55;7.72;;;-2.00;99.90;;;;;;5061399;28;20047;-77
2021/12/11 01:37:19;;;;;;;15.98;7.43;;;-2.10;99.90;;;;;;5070857;28;20392;-76
2021/12/11 01:39:47;;;;;;;12.35;6.82;;;-2.10;99.90;;;;;;5065885;28;20544;-76
2021/12/11 01:42:23;;;;;;;15.40;7.57;;;-2.10;99.90;;;;;;5062515;28;20055;-77
2021/12/11 01:44:50;;;;;;;13.07;7.50;;;-2.10;99.90;;;;;;5058230;28;20032;-77
2021/12/11 01:47:19;;;;;;;12.38;8.35;;;-2.10;99.90;;;;;;5078562;28;20028;-77
2021/12/11 01:49:48;;;;;;;16.35;8.90;;;-2.10;99.90;;;;;;5075539;28;20031;-77
2021/12/11 01:52:25;;;;;;;15.68;8.77;;;-2.10;99.90;;;;;;5079982;28;20480;-77
2021/12/11 01:54:50;;;;;;;14.32;8.80;;;-2.10;99.90;;;;;;5075024;28;20039;-77
2021/12/11 01:57:25;;;;;;;14.27;8.70;;;-2.10;99.90;;;;;;5075655;28;20052;-77
2021/12/11 02:00:07;;;;;;;15.32;8.60;;;-2.10;99.90;;;;;;5074366;28;20047;-77
2021/12/11 02:02:39;;;;;;;11.50;7.97;;;-2.10;99.90;;;;;;5073424;28;20053;-77
2021/12/11 02:05:08;;;;;;;12.40;8.02;;;-2.10;99.90;;;;;;5074929;28;20024;-77
2021/12/11 02:07:43;;;;;;;19.23;10.13;;;-2.10;99.90;;;;;;5075570;28;20109;-77
2021/12/11 02:10:59;;;;;;;16.73;10.07;;;-2.10;99.90;;;;;;5083296;28;20069;-76
2021/12/11 02:13:39;;;;;;;18.80;10.93;;;-2.20;99.90;;;;;;5031007;28;20037;-76
2021/12/11 02:16:06;;;;;;;20.70;11.90;;;-2.30;99.90;;;;;;5020387;28;20112;-76
2021/12/11 02:18:36;;;;;;;21.48;10.80;;;-2.40;99.90;;;;;;5056707;28;20048;-76
2021/12/11 02:21:18;;;;;;;26.67;12.15;;;-2.40;99.90;;;;;;5072069;28;20052;-76
2021/12/11 02:23:51;;;;;;;19.33;11.55;;;-2.50;99.90;;;;;;5065870;28;20013;-76
2021/12/11 02:26:16;;;;;;;22.83;13.60;;;-2.50;99.90;;;;;;5068232;28;20065;-77
2021/12/11 02:28:54;;;;;;;23.30;12.73;;;-2.50;99.90;;;;;;5074657;28;20060;-76
2021/12/11 02:31:42;;;;;;;24.60;13.55;;;-2.50;99.90;;;;;;5073124;28;20032;-76
2021/12/11 02:34:41;;;;;;;20.30;12.70;;;-2.60;99.90;;;;;;5059306;28;20020;-76
2021/12/11 02:37:13;;;;;;;22.70;13.63;;;-2.60;99.90;;;;;;5069578;28;20107;-76
2021/12/11 02:39:55;;;;;;;26.08;13.65;;;-2.70;99.90;;;;;;5056901;28;20033;-77
2021/12/11 02:42:40;;;;;;;21.10;11.68;;;-2.70;99.90;;;;;;5074833;28;20059;-77
2021/12/11 02:45:22;;;;;;;22.58;11.90;;;-2.70;99.90;;;;;;5054156;28;20100;-77
2021/12/11 02:48:08;;;;;;;23.60;12.38;;;-2.70;99.90;;;;;;5071651;28;20036;-77
2021/12/11 02:50:39;;;;;;;25.08;12.63;;;-2.60;99.90;;;;;;5074143;28;20027;-77
2021/12/11 02:53:24;;;;;;;21.00;12.07;;;-2.70;99.90;;;;;;5067231;28;20085;-77
2021/12/11 02:55:52;;;;;;;26.60;13.25;;;-2.70;99.90;;;;;;5081713;28;20085;-77
2021/12/11 02:58:27;;;;;;;31.05;11.93;;;-2.70;99.90;;;;;;5073828;28;20032;-77
2021/12/11 03:00:53;;;;;;;19.23;11.63;;;-2.70;99.90;;;;;;5073378;28;20032;-77
2021/12/11 03:03:28;;;;;;;18.48;11.13;;;-2.70;99.90;;;;;;5072152;28;20033;-77
2021/12/11 03:06:19;;;;;;;17.83;10.55;;;-2.80;99.90;;;;;;5070596;28;20032;-77
2021/12/11 03:08:46;;;;;;;17.15;10.00;;;-2.80;99.90;;;;;;5058658;28;20071;-77
2021/12/11 03:11:16;;;;;;;17.55;9.52;;;-2.80;99.90;;;;;;5074553;28;20445;-77
2021/12/11 03:13:50;;;;;;;22.27;11.15;;;-2.80;99.90;;;;;;5073221;28;20392;-76
2021/12/11 03:16:20;;;;;;;24.17;11.38;;;-2.80;99.90;;;;;;5080290;28;20039;-77
2021/12/11 03:18:47;;;;;;;20.40;11.38;;;-2.80;99.90;;;;;;5073251;28;20468;-77
2021/12/11 03:21:13;;;;;;;21.88;11.73;;;-2.80;99.90;;;;;;5072405;28;20361;-77
2021/12/11 03:23:40;;;;;;;24.63;12.30;;;-2.90;99.90;;;;;;5063880;28;20025;-77
2021/12/11 03:26:06;;;;;;;24.30;11.35;;;-2.90;99.90;;;;;;5072914;28;20473;-77
2021/12/11 03:28:32;;;;;;;22.35;11.27;;;-2.90;99.90;;;;;;5072056;28;20035;-76
2021/12/11 03:31:00;;;;;;;16.45;9.77;;;-2.90;99.90;;;;;;5073070;28;20024;-76
2021/12/11 03:33:48;;;;;;;27.80;12.65;;;-2.90;99.90;;;;;;5071471;28;20033;-76
2021/12/11 03:36:16;;;;;;;20.08;11.52;;;-2.90;99.90;;;;;;5068702;28;20029;-77
2021/12/11 03:38:53;;;;;;;20.95;11.60;;;-3.00;99.90;;;;;;5060121;28;20028;-77
2021/12/11 03:41:20;;;;;;;20.38;11.07;;;-3.00;99.90;;;;;;5063391;28;20499;-77
2021/12/11 03:43:48;;;;;;;26.75;11.68;;;-3.00;99.90;;;;;;5064329;28;20435;-77
2021/12/11 03:46:14;;;;;;;19.15;10.10;;;-3.00;99.90;;;;;;5055615;28;20032;-79
2021/12/11 03:48:57;;;;;;;20.25;10.82;;;-3.10;99.90;;;;;;5071278;28;20043;-76
2021/12/11 03:51:28;;;;;;;21.98;12.10;;;-3.10;99.90;;;;;;5071645;28;20032;-77
2021/12/11 03:53:54;;;;;;;17.08;11.05;;;-3.10;99.90;;;;;;5060012;28;20036;-77
2021/12/11 03:56:21;;;;;;;23.38;12.88;;;-3.10;99.90;;;;;;5073791;28;20537;-76
2021/12/11 03:58:50;;;;;;;29.73;15.88;;;-3.10;99.90;;;;;;5064790;28;20068;-76
2021/12/11 04:01:40;;;;;;;27.30;14.45;;;-3.10;99.90;;;;;;5070635;28;20020;-76
2021/12/11 04:04:13;;;;;;;38.15;18.55;;;-3.10;99.90;;;;;;5068266;28;20024;-76
2021/12/11 04:06:39;;;;;;;36.40;20.83;;;-3.20;99.90;;;;;;5070372;28;20025;-76
2021/12/11 04:09:10;;;;;;;30.63;17.67;;;-3.20;99.90;;;;;;5066247;28;20441;-76
2021/12/11 04:11:38;;;;;;;32.45;19.33;;;-3.20;99.90;;;;;;5067847;28;20103;-76
2021/12/11 04:14:09;;;;;;;30.65;17.77;;;-3.20;99.90;;;;;;5057991;28;20082;-76
2021/12/11 04:16:35;;;;;;;32.05;18.13;;;-3.20;99.90;;;;;;5072758;28;20020;-76
2021/12/11 04:19:03;;;;;;;33.20;18.92;;;-3.20;99.90;;;;;;5071208;28;20119;-76
2021/12/11 04:21:29;;;;;;;34.20;17.40;;;-3.10;99.90;;;;;;5071779;28;20032;-77
2021/12/11 04:23:55;;;;;;;30.77;18.17;;;-3.20;99.90;;;;;;5072487;28;20024;-76
2021/12/11 04:26:21;;;;;;;31.08;16.92;;;-3.20;99.90;;;;;;5068668;28;20031;-76
2021/12/11 04:28:47;;;;;;;27.30;16.60;;;-3.20;99.90;;;;;;5057339;28;20047;-76
2021/12/11 04:31:19;;;;;;;25.27;14.90;;;-3.30;99.90;;;;;;5063341;28;20082;-76
2021/12/11 04:33:49;;;;;;;16.70;10.60;;;-3.30;99.90;;;;;;5071362;28;20089;-77
2021/12/11 04:36:18;;;;;;;20.63;10.48;;;-3.30;99.90;;;;;;5072439;28;20066;-76
2021/12/11 04:38:45;;;;;;;18.05;10.25;;;-3.30;99.90;;;;;;5072070;28;20101;-76
2021/12/11 04:41:17;;;;;;;22.10;11.25;;;-3.30;99.90;;;;;;5064773;28;20034;-76
2021/12/11 04:43:44;;;;;;;21.00;11.05;;;-3.30;99.90;;;;;;5075202;28;20025;-76
2021/12/11 04:46:11;;;;;;;19.67;10.68;;;-3.30;99.90;;;;;;5075076;28;20024;-76
2021/12/11 04:49:04;;;;;;;24.05;13.38;;;-3.30;99.90;;;;;;5079040;28;20020;-76
2021/12/11 04:52:03;;;;;;;51.60;25.30;;;-3.30;99.90;;;;;;5075504;28;20029;-76
2021/12/11 04:54:47;;;;;;;30.38;17.02;;;-3.30;99.90;;;;;;5076256;28;20063;-76
2021/12/11 04:57:58;;;;;;;36.13;16.65;;;-3.30;99.90;;;;;;5065264;28;20049;-76
2021/12/11 05:03:27;;;;;;;32.42;14.43;;;-3.30;99.90;;;;;;5076418;28;20035;-77
2021/12/11 05:06:00;;;;;;;26.98;13.15;;;-3.20;99.90;;;;;;5075758;28;20074;-77
2021/12/11 05:11:14;;;;;;;21.10;11.40;;;-3.20;99.90;;;;;;5072455;28;20415;-77
2021/12/11 05:13:42;;;;;;;19.60;11.18;;;-3.20;99.90;;;;;;5074784;28;20021;-76
2021/12/11 05:16:11;;;;;;;24.77;10.98;;;-3.20;99.90;;;;;;5091822;28;20020;-76
2021/12/11 05:18:40;;;;;;;21.13;10.23;;;-3.20;99.90;;;;;;5075767;28;20393;-76
2021/12/11 05:21:10;;;;;;;23.35;8.65;;;-3.20;99.90;;;;;;5075924;28;20016;-76
2021/12/11 05:23:36;;;;;;;20.13;8.68;;;-3.20;99.90;;;;;;5075604;28;20016;-76
2021/12/11 05:26:04;;;;;;;18.48;8.25;;;-3.20;99.90;;;;;;5073898;28;20025;-76
2021/12/11 05:28:30;;;;;;;23.85;9.70;;;-3.20;99.90;;;;;;5076005;28;20020;-76
2021/12/11 05:31:00;;;;;;;18.73;8.98;;;-3.20;99.90;;;;;;5066812;28;20537;-76
2021/12/11 05:33:25;;;;;;;20.23;9.30;;;-3.20;99.90;;;;;;5063831;28;20032;-76
2021/12/11 05:35:52;;;;;;;21.73;8.43;;;-3.20;99.90;;;;;;5060226;28;20116;-76
2021/12/11 05:38:21;;;;;;;22.08;8.73;;;-3.20;99.90;;;;;;5061326;28;20032;-76
2021/12/11 05:40:52;;;;;;;19.27;8.57;;;-3.20;99.90;;;;;;5056863;28;20061;-76
2021/12/11 05:43:18;;;;;;;17.25;8.43;;;-3.20;99.90;;;;;;5070119;28;20081;-76
2021/12/11 05:45:45;;;;;;;19.08;9.15;;;-3.10;99.90;;;;;;5063231;28;20029;-76
2021/12/11 05:48:12;;;;;;;21.30;9.23;;;-3.10;99.90;;;;;;5073640;28;20024;-76
2021/12/11 05:50:45;;;;;;;17.75;8.40;;;-3.10;99.90;;;;;;5074526;28;20035;-75
2021/12/11 05:53:12;;;;;;;27.95;10.57;;;-3.10;99.90;;;;;;5074468;28;20028;-76
2021/12/11 05:55:38;;;;;;;22.55;8.98;;;-3.10;99.90;;;;;;5072852;28;20151;-76
2021/12/11 05:58:11;;;;;;;15.05;8.13;;;-3.10;99.90;;;;;;5070391;28;20036;-76
2021/12/11 06:00:41;;;;;;;13.07;7.22;;;-3.10;99.90;;;;;;5073344;28;20029;-76
2021/12/11 06:03:07;;;;;;;18.15;8.63;;;-3.10;99.90;;;;;;5055277;28;20120;-76
2021/12/11 06:05:34;;;;;;;18.20;9.13;;;-3.10;99.90;;;;;;5076085;28;20154;-76
2021/12/11 06:08:00;;;;;;;19.17;8.27;;;-3.10;99.90;;;;;;5076717;28;20056;-76
2021/12/11 06:10:27;;;;;;;14.13;7.85;;;-3.10;99.90;;;;;;5062390;28;20033;-76
2021/12/11 06:12:57;;;;;;;17.38;8.63;;;-3.10;99.90;;;;;;5073585;28;20463;-76
2021/12/11 06:15:24;;;;;;;16.60;8.60;;;-3.10;99.90;;;;;;5060382;28;20453;-77
2021/12/11 06:17:51;;;;;;;16.92;7.88;;;-3.10;99.90;;;;;;5086016;28;20043;-76
2021/12/11 06:20:22;;;;;;;21.35;9.35;;;-3.10;99.90;;;;;;5085132;28;20044;-76
2021/12/11 06:22:48;;;;;;;19.13;8.07;;;-3.10;99.90;;;;;;5059887;28;20025;-76
2021/12/11 06:25:17;;;;;;;17.15;7.82;;;-3.20;99.90;;;;;;5075709;28;20496;-76
2021/12/11 06:27:43;;;;;;;19.40;7.80;;;-3.20;99.90;;;;;;5068525;28;20614;-76
2021/12/11 06:30:11;;;;;;;14.38;7.10;;;-3.20;99.90;;;;;;5077101;28;20465;-76
2021/12/11 06:32:37;;;;;;;14.32;6.45;;;-3.20;99.90;;;;;;5081705;28;20165;-76
2021/12/11 06:35:16;;;;;;;14.65;7.47;;;-3.30;99.90;;;;;;5076816;28;20112;-76
2021/12/11 06:37:42;;;;;;;16.35;8.25;;;-3.30;99.90;;;;;;5077260;28;20032;-76
2021/12/11 06:40:09;;;;;;;15.73;7.80;;;-3.30;99.90;;;;;;5087358;28;20092;-76
2021/12/11 06:42:35;;;;;;;18.17;8.50;;;-3.30;99.90;;;;;;5076729;28;20028;-76
2021/12/11 06:45:00;;;;;;;25.63;10.52;;;-3.20;99.90;;;;;;5080246;28;20027;-78
2021/12/11 06:47:26;;;;;;;35.70;15.70;;;-3.20;99.90;;;;;;5073791;28;20427;-76
2021/12/11 06:49:52;;;;;;;29.63;14.55;;;-3.20;99.90;;;;;;5074426;28;20035;-76
2021/12/11 06:52:20;;;;;;;26.80;13.82;;;-3.10;99.90;;;;;;5080537;28;20034;-77
2021/12/11 06:54:47;;;;;;;50.58;20.98;;;-3.00;99.90;;;;;;5073192;28;20039;-76
2021/12/11 06:57:13;;;;;;;61.88;23.83;;;-2.90;99.90;;;;;;5072667;28;20040;-76
2021/12/11 06:59:38;;;;;;;44.92;19.92;;;-2.80;99.90;;;;;;5073914;28;20040;-76
2021/12/11 07:02:05;;;;;;;47.65;19.98;;;-2.70;99.90;;;;;;5086803;28;20024;-76
2021/12/11 07:04:30;;;;;;;42.35;18.65;;;-2.60;99.90;;;;;;5088189;28;20385;-76
2021/12/11 07:06:56;;;;;;;37.55;17.85;;;-2.60;99.90;;;;;;5073743;28;20033;-76
2021/12/11 07:09:25;;;;;;;48.97;18.30;;;-2.50;99.90;;;;;;5086736;28;20123;-76
2021/12/11 07:11:53;;;;;;;44.58;16.88;;;-2.50;99.90;;;;;;5072105;28;20032;-76
2021/12/11 07:14:19;;;;;;;33.55;15.85;;;-2.50;99.90;;;;;;5074715;28;20032;-76
2021/12/11 07:16:46;;;;;;;28.55;14.55;;;-2.40;99.90;;;;;;5073343;28;20032;-76
2021/12/11 07:19:13;;;;;;;39.22;16.42;;;-2.40;99.90;;;;;;5075948;28;20078;-76
2021/12/11 07:21:39;;;;;;;30.55;14.30;;;-2.40;99.90;;;;;;5068569;28;20525;-76
2021/12/11 07:24:07;;;;;;;32.97;12.82;;;-2.40;99.90;;;;;;5063563;28;20028;-76
2021/12/11 07:26:34;;;;;;;20.15;11.00;;;-2.30;99.90;;;;;;5067585;28;20048;-76
2021/12/11 07:29:05;;;;;;;22.65;9.60;;;-2.30;99.90;;;;;;5060646;28;20016;-76
2021/12/11 07:31:31;;;;;;;19.58;8.65;;;-2.30;99.90;;;;;;5081036;28;20028;-76
2021/12/11 07:33:57;;;;;;;16.25;8.20;;;-2.20;99.90;;;;;;5076451;28;20050;-76
2021/12/11 07:36:25;;;;;;;17.65;8.32;;;-2.20;99.90;;;;;;5082372;28;20764;-76
2021/12/11 07:38:51;;;;;;;16.98;8.40;;;-2.20;99.90;;;;;;5076217;28;20075;-76
2021/12/11 07:41:19;;;;;;;21.27;8.43;;;-2.20;99.90;;;;;;5071167;28;20472;-76
2021/12/11 07:43:46;;;;;;;15.07;8.15;;;-2.20;99.90;;;;;;5072093;28;20024;-76
2021/12/11 07:46:15;;;;;;;11.10;6.85;;;-2.10;99.90;;;;;;5082062;28;20039;-76
2021/12/11 07:48:43;;;;;;;17.08;8.10;;;-2.10;99.90;;;;;;5057602;28;21770;-76
2021/12/11 07:51:09;;;;;;;19.70;7.93;;;-2.10;99.90;;;;;;5074271;28;20047;-76
2021/12/11 07:53:35;;;;;;;17.67;8.20;;;-2.10;99.90;;;;;;5073954;28;20056;-76
2021/12/11 07:56:01;;;;;;;19.63;8.30;;;-2.10;99.90;;;;;;5080500;28;20036;-76
2021/12/11 07:58:31;;;;;;;16.58;7.55;;;-2.10;99.90;;;;;;5060718;28;20020;-76
2021/12/11 08:00:58;;;;;;;19.63;7.93;;;-2.10;99.90;;;;;;5084069;28;20043;-76
2021/12/11 08:03:23;;;;;;;17.45;7.35;;;-2.10;99.90;;;;;;5072858;28;20039;-76
2021/12/11 08:05:51;;;;;;;12.10;6.80;;;-2.10;99.90;;;;;;5068056;28;20384;-76
2021/12/11 08:08:19;;;;;;;13.55;7.05;;;-2.00;99.90;;;;;;5082408;28;20055;-76
2021/12/11 08:10:50;;;;;;;12.65;6.93;;;-2.10;99.90;;;;;;5073938;28;20036;-82
2021/12/11 08:13:16;;;;;;;12.30;6.57;;;-2.10;99.90;;;;;;5071487;28;20358;-77
2021/12/11 08:15:42;;;;;;;12.55;7.07;;;-2.10;99.90;;;;;;5072096;28;20032;-77
2021/12/11 08:18:14;;;;;;;16.52;7.82;;;-2.00;99.90;;;;;;5089297;28;20119;-77
2021/12/11 08:20:43;;;;;;;16.48;7.20;;;-2.00;99.90;;;;;;5075369;28;20028;-77
2021/12/11 08:23:11;;;;;;;13.00;7.47;;;-2.00;99.90;;;;;;5085158;28;20025;-77
2021/12/11 08:25:39;;;;;;;12.20;6.88;;;-1.90;99.90;;;;;;5066282;28;20090;-77
2021/12/11 08:28:06;;;;;;;19.85;8.02;;;-1.90;99.90;;;;;;5082885;28;20032;-77
2021/12/11 08:30:35;;;;;;;13.40;7.05;;;-1.90;99.90;;;;;;5071701;28;20035;-78
2021/12/11 08:33:01;;;;;;;20.10;8.32;;;-1.90;99.90;;;;;;5086426;28;20044;-78
2021/12/11 08:35:27;;;;;;;13.32;7.47;;;-1.80;99.90;;;;;;5072092;28;20418;-77
2021/12/11 08:37:53;;;;;;;13.43;7.35;;;-1.80;99.90;;;;;;5078467;28;20047;-77
2021/12/11 08:40:27;;;;;;;17.35;7.57;;;-1.70;99.90;;;;;;5079464;28;20499;-78
2021/12/11 08:42:58;;;;;;;15.35;7.43;;;-1.70;99.90;;;;;;5066454;28;20545;-77
2021/12/11 08:45:43;;;;;;;15.77;7.93;;;-1.70;99.90;;;;;;5066377;28;20409;-77
2021/12/11 08:48:09;;;;;;;16.08;8.20;;;-1.60;99.90;;;;;;5064141;28;20027;-77
2021/12/11 08:50:35;;;;;;;18.35;9.93;;;-1.50;99.90;;;;;;5091547;28;20036;-77
2021/12/11 08:53:01;;;;;;;22.35;8.98;;;-1.50;99.90;;;;;;5070438;28;20372;-77
2021/12/11 08:55:32;;;;;;;21.25;9.55;;;-1.50;99.90;;;;;;5072486;28;20108;-77
2021/12/11 08:58:00;;;;;;;17.75;8.77;;;-1.40;99.90;;;;;;5076203;28;20040;-77
2021/12/11 09:00:50;;;;;;;19.35;8.65;;;-1.40;99.90;;;;;;5071380;28;20036;-77
2021/12/11 09:03:37;;;;;;;15.73;7.95;;;-1.40;99.90;;;;;;5077809;28;20029;-77
2021/12/11 09:06:12;;;;;;;16.70;8.57;;;-1.30;99.90;;;;;;5080385;28;20025;-77
2021/12/11 09:08:50;;;;;;;22.58;8.90;;;-1.30;99.90;;;;;;5071173;28;20097;-77
2021/12/11 09:11:28;;;;;;;17.02;8.85;;;-1.20;99.90;;;;;;5079677;28;20037;-77
2021/12/11 09:13:59;;;;;;;24.83;9.35;;;-1.20;99.90;;;;;;5087810;28;20024;-77
2021/12/11 09:16:27;;;;;;;18.70;8.65;;;-1.10;99.90;;;;;;5064896;28;20052;-77
2021/12/11 09:19:01;;;;;;;14.82;7.43;;;-1.10;99.90;;;;;;5071470;28;20040;-77
2021/12/11 09:21:37;;;;;;;17.10;7.20;;;-1.10;99.90;;;;;;5087962;28;20104;-77
2021/12/11 09:24:38;;;;;;;13.45;7.13;;;-1.00;99.90;;;;;;5072081;28;20032;-77
2021/12/11 09:27:12;;;;;;;15.40;7.13;;;-1.00;99.90;;;;;;5073637;28;20078;-77
2021/12/11 09:29:47;;;;;;;14.18;7.50;;;-0.90;99.90;;;;;;5095590;28;20032;-77
2021/12/11 09:32:31;;;;;;;;;;;-0.80;99.90;;;;;;5082416;28;20377;-77
2021/12/11 09:35:09;;;;;;;18.98;6.60;;;-0.80;99.90;;;;;;5075499;28;19912;-77
2021/12/11 09:37:35;;;;;;;23.08;6.63;;;-0.70;99.90;;;;;;5075901;28;20040;-77
2021/12/11 09:40:33;;;;;;;16.20;7.30;;;-0.60;99.90;;;;;;5078997;28;20111;-77
2021/12/11 09:43:00;;;;;;;8.85;6.00;;;-0.60;99.90;;;;;;5070046;28;20565;-77
2021/12/11 09:45:27;;;;;;;11.40;6.30;;;-0.50;99.90;;;;;;5085694;28;20093;-77
2021/12/11 09:48:04;;;;;;;14.50;6.07;;;-0.50;99.90;;;;;;5083039;28;20024;-77
2021/12/11 09:50:45;;;;;;;13.65;5.97;;;-0.40;99.90;;;;;;5081939;28;20040;-77
2021/12/11 09:53:13;;;;;;;14.63;5.00;;;-0.40;99.90;;;;;;5074958;28;20159;-78
2021/12/11 09:55:39;;;;;;;14.27;5.45;;;-0.30;99.90;;;;;;5075001;28;20024;-78
2021/12/11 09:58:13;;;;;;;21.17;8.25;;;-0.10;99.90;;;;;;5076387;28;20086;-77
2021/12/11 10:00:44;;;;;;;23.25;11.07;;;-0.10;99.90;;;;;;5074148;28;20159;-77
2021/12/11 10:03:11;;;;;;;27.02;10.63;;;0.10;99.90;;;;;;5076163;28;20078;-78
2021/12/11 10:05:50;;;;;;;24.48;7.55;;;0.20;99.90;;;;;;5086941;28;20854;-78
2021/12/11 10:08:32;;;;;;;20.27;7.72;;;0.30;99.90;;;;;;5082957;28;20027;-77
2021/12/11 10:11:23;;;;;;;34.28;10.88;;;0.50;99.90;;;;;;5086497;28;20097;-77
2021/12/11 10:13:51;;;;;;;56.78;20.77;;;0.70;99.90;;;;;;5074833;28;20024;-77
2021/12/11 10:16:22;;;;;;;47.75;19.90;;;0.80;99.90;;;;;;5077805;28;20021;-78
2021/12/11 10:18:48;;;;;;;32.00;11.98;;;0.90;99.90;;;;;;5087195;28;20466;-77
2021/12/11 10:21:32;;;;;;;29.38;13.32;;;0.90;99.90;;;;;;5076900;28;20024;-77
2021/12/11 10:24:00;;;;;;;26.85;13.65;;;1.00;99.90;;;;;;5074864;28;20032;-77
2021/12/11 10:26:27;;;;;;;22.10;12.35;;;1.10;99.90;;;;;;5074689;28;20501;-77
2021/12/11 10:28:57;;;;;;;26.25;9.90;;;1.20;99.90;;;;;;5074466;28;20039;-78
2021/12/11 10:31:29;;;;;;;23.38;11.38;;;1.20;99.90;;;;;;5074555;28;20027;-78
2021/12/11 10:33:57;;;;;;;19.50;8.98;;;1.10;99.90;;;;;;5074452;28;20472;-79
2021/12/11 10:36:26;;;;;;;18.08;9.32;;;1.20;99.90;;;;;;5071849;28;20036;-78
2021/12/11 10:38:54;;;;;;;20.75;9.73;;;1.20;99.90;;;;;;5074158;28;20020;-78
2021/12/11 10:41:20;;;;;;;27.95;10.07;;;1.20;99.90;;;;;;5092282;28;20545;-78
2021/12/11 10:43:55;;;;;;;23.40;10.27;;;1.20;99.90;;;;;;5090671;28;20032;-78
2021/12/11 10:46:27;;;;;;;26.48;10.00;;;1.30;99.90;;;;;;5074860;28;20381;-78
2021/12/11 10:48:54;;;;;;;20.13;9.13;;;1.30;99.90;;;;;;5082074;28;20494;-78
2021/12/11 10:51:28;;;;;;;18.00;9.43;;;1.30;99.90;;;;;;5082230;28;20094;-78
2021/12/11 10:53:54;;;;;;;18.30;9.25;;;1.40;99.90;;;;;;5074319;28;20029;-78
2021/12/11 10:56:21;;;;;;;17.80;9.38;;;1.40;99.90;;;;;;5084435;28;20049;-78
2021/12/11 10:58:55;;;;;;;18.85;9.68;;;1.40;99.90;;;;;;5078131;28;20071;-78
2021/12/11 11:01:30;;;;;;;27.27;11.98;;;1.50;99.90;;;;;;5084672;28;20060;-78
2021/12/11 11:04:02;;;;;;;;;;;1.50;99.90;;;;;;5076928;28;20024;-78
2021/12/11 11:06:28;;;;;;;41.22;19.10;;;1.50;99.90;;;;;;5058496;28;19912;-78
2021/12/11 11:08:54;;;;;;;49.00;20.52;;;1.60;99.90;;;;;;5073817;28;20342;-77
2021/12/11 11:11:24;;;;;;;38.70;19.10;;;1.60;99.90;;;;;;5073932;28;20064;-78
2021/12/11 11:13:51;;;;;;;29.10;12.18;;;1.60;99.90;;;;;;5078565;28;20031;-78
2021/12/11 11:16:18;;;;;;;28.92;13.70;;;1.70;99.90;;;;;;5079915;28;20028;-78
2021/12/11 11:18:43;;;;;;;26.30;11.00;;;1.80;99.90;;;;;;5074771;28;20165;-78
2021/12/11 11:21:13;;;;;;;27.63;10.82;;;1.90;99.90;;;;;;5093001;28;20063;-77
2021/12/11 11:23:41;;;;;;;17.38;9.30;;;1.90;99.90;;;;;;5083320;28;20998;-77
2021/12/11 11:26:13;;;;;;;23.45;8.40;;;2.00;99.90;;;;;;5077138;28;20056;-77
2021/12/11 11:28:39;;;;;;;21.80;9.48;;;2.00;99.90;;;;;;5088834;28;20020;-78
2021/12/11 11:31:28;;;;;;;18.08;8.65;;;2.00;99.90;;;;;;5085353;28;20028;-78
2021/12/11 11:33:55;;;;;;;17.33;8.75;;;2.00;99.90;;;;;;5076570;28;20032;-78
2021/12/11 11:36:25;;;;;;;16.67;8.15;;;2.00;99.90;;;;;;5086694;28;20036;-78
2021/12/11 11:38:56;;;;;;;19.52;8.50;;;1.90;99.90;;;;;;5076999;28;20145;-77
2021/12/11 11:41:27;;;;;;;20.95;7.32;;;1.90;99.90;;;;;;5077564;28;20479;-77
2021/12/11 11:43:53;;;;;;;14.40;5.63;;;1.90;99.90;;;;;;5082153;28;20029;-78
2021/12/11 11:46:22;;;;;;;19.55;7.25;;;2.00;99.90;;;;;;5090029;28;20020;-77
2021/12/11 11:48:50;;;;;;;9.35;3.88;;;2.10;99.90;;;;;;5088284;28;20024;-77
2021/12/11 11:51:26;;;;;;;8.85;2.92;;;2.30;99.90;;;;;;5076103;28;20043;-77
2021/12/11 11:53:55;;;;;;;10.68;3.00;;;2.40;99.90;;;;;;5075620;28;20028;-78
2021/12/11 11:56:24;;;;;;;5.63;2.10;;;2.50;99.90;;;;;;5089223;28;20397;-78
2021/12/11 11:58:53;;;;;;;6.60;2.30;;;2.50;99.90;;;;;;5089389;28;20016;-77
2021/12/11 12:01:23;;;;;;;2.53;1.98;;;2.60;99.90;;;;;;5081328;28;20032;-78
2021/12/11 12:03:49;;;;;;;4.28;2.05;;;2.70;99.90;;;;;;5080049;28;20020;-77
2021/12/11 12:06:23;;;;;;;9.90;2.50;;;2.80;99.90;;;;;;5089194;28;20043;-77
2021/12/11 12:08:52;;;;;;;3.17;2.20;;;2.90;99.90;;;;;;5092010;28;20055;-77
2021/12/11 12:11:18;;;;;;;5.93;2.20;;;2.90;99.90;;;;;;5092422;28;20097;-77
2021/12/11 12:13:44;;;;;;;6.13;2.55;;;2.90;99.90;;;;;;5073743;28;20104;-78
2021/12/11 12:16:13;;;;;;;4.55;3.25;;;2.90;99.90;;;;;;5077551;28;20099;-78
2021/12/11 12:18:41;;;;;;;12.45;5.28;;;2.80;99.90;;;;;;5077051;28;20103;-78
2021/12/11 12:21:10;;;;;;;18.90;8.07;;;2.80;99.90;;;;;;5086100;28;20468;-78
2021/12/11 12:23:35;;;;;;;16.42;8.60;;;2.70;99.90;;;;;;5076913;28;20077;-78
2021/12/11 12:26:07;;;;;;;13.73;7.18;;;2.70;99.90;;;;;;5072966;28;20016;-78
2021/12/11 12:28:33;;;;;;;13.70;6.53;;;2.60;99.90;;;;;;5082239;28;20101;-78
2021/12/11 12:31:08;;;;;;;12.13;6.15;;;2.70;99.90;;;;;;5088153;28;20023;-77
2021/12/11 12:33:34;;;;;;;15.82;6.00;;;2.80;99.90;;;;;;5062226;28;20051;-77
2021/12/11 12:36:00;;;;;;;16.85;7.15;;;2.80;99.90;;;;;;5080915;28;20036;-77
2021/12/11 12:38:30;;;;;;;17.73;7.32;;;2.90;99.90;;;;;;5084635;28;20042;-78
2021/12/11 12:41:02;;;;;;;18.63;7.78;;;2.90;99.90;;;;;;5073050;28;20029;-77
2021/12/11 12:43:54;;;;;;;16.38;7.35;;;2.90;99.90;;;;;;5073726;28;20028;-77
2021/12/11 12:46:33;;;;;;;12.80;6.20;;;2.80;99.90;;;;;;5078505;28;20082;-77
2021/12/11 12:49:02;;;;;;;13.98;6.80;;;2.70;99.90;;;;;;5069871;28;20373;-77
2021/12/11 12:51:28;;;;;;;10.35;5.40;;;2.60;99.90;;;;;;5092361;28;20021;-78
2021/12/11 12:53:56;;;;;;;8.80;5.25;;;2.50;99.90;;;;;;5091398;28;20069;-78
2021/12/11 12:56:32;;;;;;;12.30;5.90;;;2.40;99.90;;;;;;5074009;28;20098;-78
2021/12/11 12:59:06;;;;;;;11.20;5.38;;;2.30;99.90;;;;;;5086971;28;20032;-78
2021/12/11 13:01:47;;;;;;;11.20;4.88;;;2.30;99.90;;;;;;5089348;28;20116;-78
2021/12/11 13:04:15;;;;;;;8.80;4.55;;;2.20;99.90;;;;;;5088689;28;20040;-78